sensor_id;sensor_type;location;lat;lon;timestamp;P1;durP1;ratioP1;P2;durP2;ratioP2
52480;SDS011;38393;52.404;13.532;2023-08-01T00:02:14;9.05;;;3.90;;
52480;SDS011;38393;52.404;13.532;2023-08-01T00:04:39;8.82;;;4.15;;
52480;SDS011;38393;52.404;13.532;2023-08-01T00:07:05;8.80;;;4.03;;
52480;SDS011;38393;52.404;13.532;2023-08-01T00:09:30;7.53;;;4.05;;
52480;SDS011;38393;52.404;13.532;2023-08-01T00:11:56;8.68;;;4.22;;
52480;SDS011;38393;52.404;13.532;2023-08-01T00:14:21;8.75;;;4.18;;
52480;SDS011;38393;52.404;13.532;2023-08-01T00:16:49;10.65;;;5.05;;
52480;SDS011;38393;52.404;13.532;2023-08-01T00:19:15;9.20;;;3.92;;
52480;SDS011;38393;52.404;13.532;2023-08-01T00:21:40;12.52;;;3.63;;
52480;SDS011;38393;52.404;13.532;2023-08-01T00:24:06;10.05;;;3.60;;
52480;SDS011;38393;52.404;13.532;2023-08-01T00:26:33;6.78;;;3.53;;
52480;SDS011;38393;52.404;13.532;2023-08-01T00:28:58;6.72;;;3.65;;
52480;SDS011;38393;52.404;13.532;2023-08-01T00:31:24;7.95;;;3.40;;
52480;SDS011;38393;52.404;13.532;2023-08-01T00:33:49;7.68;;;3.47;;
52480;SDS011;38393;52.404;13.532;2023-08-01T00:36:15;7.07;;;3.92;;
52480;SDS011;38393;52.404;13.532;2023-08-01T00:38:40;10.65;;;3.58;;
52480;SDS011;38393;52.404;13.532;2023-08-01T00:41:08;6.40;;;3.90;;
52480;SDS011;38393;52.404;13.532;2023-08-01T00:43:34;7.20;;;3.67;;
52480;SDS011;38393;52.404;13.532;2023-08-01T00:46:00;5.70;;;3.50;;
52480;SDS011;38393;52.404;13.532;2023-08-01T00:48:28;9.30;;;3.80;;
52480;SDS011;38393;52.404;13.532;2023-08-01T00:50:54;6.70;;;3.83;;
52480;SDS011;38393;52.404;13.532;2023-08-01T00:53:21;6.13;;;3.75;;
52480;SDS011;38393;52.404;13.532;2023-08-01T00:55:46;6.78;;;4.10;;
52480;SDS011;38393;52.404;13.532;2023-08-01T00:58:12;5.55;;;3.58;;
52480;SDS011;38393;52.404;13.532;2023-08-01T01:00:38;7.18;;;3.65;;
52480;SDS011;38393;52.404;13.532;2023-08-01T01:03:04;5.85;;;3.75;;
52480;SDS011;38393;52.404;13.532;2023-08-01T01:05:31;4.82;;;3.40;;
52480;SDS011;38393;52.404;13.532;2023-08-01T01:08:02;7.38;;;4.25;;
52480;SDS011;38393;52.404;13.532;2023-08-01T01:10:28;7.05;;;4.28;;
52480;SDS011;38393;52.404;13.532;2023-08-01T01:12:54;7.75;;;4.00;;
52480;SDS011;38393;52.404;13.532;2023-08-01T01:15:20;7.35;;;3.90;;
52480;SDS011;38393;52.404;13.532;2023-08-01T01:17:45;7.18;;;4.28;;
52480;SDS011;38393;52.404;13.532;2023-08-01T01:20:11;7.18;;;3.97;;
52480;SDS011;38393;52.404;13.532;2023-08-01T01:22:37;7.65;;;3.97;;
52480;SDS011;38393;52.404;13.532;2023-08-01T01:25:03;6.85;;;4.15;;
52480;SDS011;38393;52.404;13.532;2023-08-01T01:27:30;7.95;;;4.32;;
52480;SDS011;38393;52.404;13.532;2023-08-01T01:29:57;8.30;;;4.50;;
52480;SDS011;38393;52.404;13.532;2023-08-01T01:32:23;8.68;;;4.65;;
52480;SDS011;38393;52.404;13.532;2023-08-01T01:34:49;7.30;;;4.30;;
52480;SDS011;38393;52.404;13.532;2023-08-01T01:37:14;8.05;;;4.28;;
52480;SDS011;38393;52.404;13.532;2023-08-01T01:39:40;7.65;;;4.78;;
52480;SDS011;38393;52.404;13.532;2023-08-01T01:42:05;9.65;;;4.80;;
52480;SDS011;38393;52.404;13.532;2023-08-01T01:44:31;9.88;;;4.75;;
52480;SDS011;38393;52.404;13.532;2023-08-01T01:46:57;8.45;;;4.30;;
52480;SDS011;38393;52.404;13.532;2023-08-01T01:49:22;9.07;;;4.45;;
52480;SDS011;38393;52.404;13.532;2023-08-01T01:51:48;6.70;;;4.60;;
52480;SDS011;38393;52.404;13.532;2023-08-01T01:54:13;8.75;;;5.10;;
52480;SDS011;38393;52.404;13.532;2023-08-01T01:56:38;9.10;;;5.07;;
52480;SDS011;38393;52.404;13.532;2023-08-01T01:59:04;8.10;;;4.88;;
52480;SDS011;38393;52.404;13.532;2023-08-01T02:01:29;8.63;;;5.28;;
52480;SDS011;38393;52.404;13.532;2023-08-01T02:03:55;9.77;;;4.95;;
52480;SDS011;38393;52.404;13.532;2023-08-01T02:06:20;8.77;;;4.82;;
52480;SDS011;38393;52.404;13.532;2023-08-01T02:08:46;7.05;;;4.80;;
52480;SDS011;38393;52.404;13.532;2023-08-01T02:11:11;9.32;;;4.82;;
52480;SDS011;38393;52.404;13.532;2023-08-01T02:13:37;8.32;;;5.45;;
52480;SDS011;38393;52.404;13.532;2023-08-01T02:16:02;9.82;;;5.20;;
52480;SDS011;38393;52.404;13.532;2023-08-01T02:18:28;11.35;;;5.47;;
52480;SDS011;38393;52.404;13.532;2023-08-01T02:20:53;11.52;;;5.15;;
52480;SDS011;38393;52.404;13.532;2023-08-01T02:23:19;9.80;;;5.47;;
52480;SDS011;38393;52.404;13.532;2023-08-01T02:25:44;8.88;;;5.18;;
52480;SDS011;38393;52.404;13.532;2023-08-01T02:28:10;10.77;;;5.70;;
52480;SDS011;38393;52.404;13.532;2023-08-01T02:30:35;10.25;;;5.70;;
52480;SDS011;38393;52.404;13.532;2023-08-01T02:33:01;9.55;;;5.10;;
52480;SDS011;38393;52.404;13.532;2023-08-01T02:35:27;10.68;;;5.68;;
52480;SDS011;38393;52.404;13.532;2023-08-01T02:37:53;11.90;;;5.50;;
52480;SDS011;38393;52.404;13.532;2023-08-01T02:40:19;9.52;;;5.13;;
52480;SDS011;38393;52.404;13.532;2023-08-01T02:42:45;11.85;;;5.32;;
52480;SDS011;38393;52.404;13.532;2023-08-01T02:45:10;10.05;;;5.50;;
52480;SDS011;38393;52.404;13.532;2023-08-01T02:47:36;8.23;;;5.07;;
52480;SDS011;38393;52.404;13.532;2023-08-01T02:50:01;13.45;;;5.55;;
52480;SDS011;38393;52.404;13.532;2023-08-01T02:52:26;10.05;;;5.32;;
52480;SDS011;38393;52.404;13.532;2023-08-01T02:54:52;12.07;;;5.35;;
52480;SDS011;38393;52.404;13.532;2023-08-01T02:57:18;11.85;;;5.63;;
52480;SDS011;38393;52.404;13.532;2023-08-01T02:59:44;10.13;;;4.97;;
52480;SDS011;38393;52.404;13.532;2023-08-01T03:02:09;9.80;;;5.28;;
52480;SDS011;38393;52.404;13.532;2023-08-01T03:04:35;10.40;;;5.35;;
52480;SDS011;38393;52.404;13.532;2023-08-01T03:07:00;8.23;;;4.78;;
52480;SDS011;38393;52.404;13.532;2023-08-01T03:09:26;12.40;;;4.97;;
52480;SDS011;38393;52.404;13.532;2023-08-01T03:11:51;9.35;;;5.13;;
52480;SDS011;38393;52.404;13.532;2023-08-01T03:14:17;9.02;;;5.32;;
52480;SDS011;38393;52.404;13.532;2023-08-01T03:16:43;13.80;;;5.18;;
52480;SDS011;38393;52.404;13.532;2023-08-01T03:19:08;7.93;;;4.68;;
52480;SDS011;38393;52.404;13.532;2023-08-01T03:21:34;9.23;;;5.10;;
52480;SDS011;38393;52.404;13.532;2023-08-01T03:24:00;10.63;;;4.60;;
52480;SDS011;38393;52.404;13.532;2023-08-01T03:26:28;8.32;;;4.97;;
52480;SDS011;38393;52.404;13.532;2023-08-01T03:28:54;9.73;;;5.30;;
52480;SDS011;38393;52.404;13.532;2023-08-01T03:31:20;9.75;;;5.15;;
52480;SDS011;38393;52.404;13.532;2023-08-01T03:33:47;8.35;;;4.88;;
52480;SDS011;38393;52.404;13.532;2023-08-01T03:36:12;8.23;;;4.65;;
52480;SDS011;38393;52.404;13.532;2023-08-01T03:38:38;8.00;;;4.50;;
52480;SDS011;38393;52.404;13.532;2023-08-01T03:41:04;11.90;;;4.97;;
52480;SDS011;38393;52.404;13.532;2023-08-01T03:43:29;6.55;;;4.55;;
52480;SDS011;38393;52.404;13.532;2023-08-01T03:45:55;13.70;;;5.30;;
52480;SDS011;38393;52.404;13.532;2023-08-01T03:48:20;8.68;;;5.38;;
52480;SDS011;38393;52.404;13.532;2023-08-01T03:50:46;7.60;;;4.60;;
52480;SDS011;38393;52.404;13.532;2023-08-01T03:53:11;8.07;;;4.72;;
52480;SDS011;38393;52.404;13.532;2023-08-01T03:55:37;8.65;;;4.40;;
52480;SDS011;38393;52.404;13.532;2023-08-01T03:58:02;9.27;;;4.82;;
52480;SDS011;38393;52.404;13.532;2023-08-01T04:00:28;7.28;;;4.22;;
52480;SDS011;38393;52.404;13.532;2023-08-01T04:02:57;7.45;;;4.28;;
52480;SDS011;38393;52.404;13.532;2023-08-01T04:05:23;8.68;;;4.40;;
52480;SDS011;38393;52.404;13.532;2023-08-01T04:07:49;6.25;;;3.95;;
52480;SDS011;38393;52.404;13.532;2023-08-01T04:10:14;6.35;;;4.07;;
52480;SDS011;38393;52.404;13.532;2023-08-01T04:12:40;7.25;;;4.40;;
52480;SDS011;38393;52.404;13.532;2023-08-01T04:15:07;6.50;;;4.20;;
52480;SDS011;38393;52.404;13.532;2023-08-01T04:17:33;9.57;;;4.30;;
52480;SDS011;38393;52.404;13.532;2023-08-01T04:19:58;9.20;;;4.57;;
52480;SDS011;38393;52.404;13.532;2023-08-01T04:22:24;8.95;;;4.43;;
52480;SDS011;38393;52.404;13.532;2023-08-01T04:24:49;10.77;;;4.43;;
52480;SDS011;38393;52.404;13.532;2023-08-01T04:27:15;7.80;;;4.20;;
52480;SDS011;38393;52.404;13.532;2023-08-01T04:29:41;8.77;;;3.75;;
52480;SDS011;38393;52.404;13.532;2023-08-01T04:32:06;6.72;;;4.35;;
52480;SDS011;38393;52.404;13.532;2023-08-01T04:34:32;8.57;;;4.30;;
52480;SDS011;38393;52.404;13.532;2023-08-01T04:36:58;7.30;;;4.20;;
52480;SDS011;38393;52.404;13.532;2023-08-01T04:39:23;7.05;;;3.95;;
52480;SDS011;38393;52.404;13.532;2023-08-01T04:41:49;7.03;;;3.50;;
52480;SDS011;38393;52.404;13.532;2023-08-01T04:44:14;8.30;;;3.88;;
52480;SDS011;38393;52.404;13.532;2023-08-01T04:46:40;13.10;;;4.18;;
52480;SDS011;38393;52.404;13.532;2023-08-01T04:49:06;6.57;;;3.67;;
52480;SDS011;38393;52.404;13.532;2023-08-01T04:51:32;8.60;;;4.10;;
52480;SDS011;38393;52.404;13.532;2023-08-01T04:53:57;6.55;;;3.65;;
52480;SDS011;38393;52.404;13.532;2023-08-01T04:56:23;6.05;;;4.10;;
52480;SDS011;38393;52.404;13.532;2023-08-01T04:58:48;10.07;;;3.97;;
52480;SDS011;38393;52.404;13.532;2023-08-01T05:01:14;8.75;;;4.93;;
52480;SDS011;38393;52.404;13.532;2023-08-01T05:03:39;7.75;;;4.20;;
52480;SDS011;38393;52.404;13.532;2023-08-01T05:06:05;5.90;;;4.00;;
52480;SDS011;38393;52.404;13.532;2023-08-01T05:08:30;5.63;;;3.65;;
52480;SDS011;38393;52.404;13.532;2023-08-01T05:10:56;7.65;;;4.30;;
52480;SDS011;38393;52.404;13.532;2023-08-01T05:13:21;5.60;;;3.75;;
52480;SDS011;38393;52.404;13.532;2023-08-01T05:15:47;7.97;;;3.90;;
52480;SDS011;38393;52.404;13.532;2023-08-01T05:18:13;7.00;;;3.70;;
52480;SDS011;38393;52.404;13.532;2023-08-01T05:20:39;7.32;;;3.88;;
52480;SDS011;38393;52.404;13.532;2023-08-01T05:23:04;6.90;;;3.67;;
52480;SDS011;38393;52.404;13.532;2023-08-01T05:25:30;8.32;;;3.50;;
52480;SDS011;38393;52.404;13.532;2023-08-01T05:27:55;4.68;;;3.28;;
52480;SDS011;38393;52.404;13.532;2023-08-01T05:30:20;6.72;;;3.95;;
52480;SDS011;38393;52.404;13.532;2023-08-01T05:32:46;5.78;;;4.03;;
52480;SDS011;38393;52.404;13.532;2023-08-01T05:35:12;5.97;;;4.25;;
52480;SDS011;38393;52.404;13.532;2023-08-01T05:37:37;5.15;;;3.92;;
52480;SDS011;38393;52.404;13.532;2023-08-01T05:40:03;7.03;;;3.90;;
52480;SDS011;38393;52.404;13.532;2023-08-01T05:42:29;6.18;;;3.60;;
52480;SDS011;38393;52.404;13.532;2023-08-01T05:44:55;4.97;;;3.50;;
52480;SDS011;38393;52.404;13.532;2023-08-01T05:47:20;5.22;;;3.38;;
52480;SDS011;38393;52.404;13.532;2023-08-01T05:49:47;6.32;;;3.20;;
52480;SDS011;38393;52.404;13.532;2023-08-01T05:52:13;5.90;;;3.60;;
52480;SDS011;38393;52.404;13.532;2023-08-01T05:54:39;7.55;;;3.42;;
52480;SDS011;38393;52.404;13.532;2023-08-01T05:57:04;6.85;;;3.72;;
52480;SDS011;38393;52.404;13.532;2023-08-01T05:59:30;4.82;;;3.47;;
52480;SDS011;38393;52.404;13.532;2023-08-01T06:01:55;5.50;;;3.30;;
52480;SDS011;38393;52.404;13.532;2023-08-01T06:04:21;4.68;;;3.30;;
52480;SDS011;38393;52.404;13.532;2023-08-01T06:06:47;7.03;;;3.30;;
52480;SDS011;38393;52.404;13.532;2023-08-01T06:09:13;5.38;;;3.33;;
52480;SDS011;38393;52.404;13.532;2023-08-01T06:11:38;9.65;;;3.35;;
52480;SDS011;38393;52.404;13.532;2023-08-01T06:14:04;6.35;;;3.42;;
52480;SDS011;38393;52.404;13.532;2023-08-01T06:16:29;5.95;;;3.15;;
52480;SDS011;38393;52.404;13.532;2023-08-01T06:18:55;5.13;;;3.50;;
52480;SDS011;38393;52.404;13.532;2023-08-01T06:21:21;5.53;;;3.25;;
52480;SDS011;38393;52.404;13.532;2023-08-01T06:23:46;4.32;;;3.20;;
52480;SDS011;38393;52.404;13.532;2023-08-01T06:26:12;7.70;;;3.40;;
52480;SDS011;38393;52.404;13.532;2023-08-01T06:28:40;5.90;;;3.40;;
52480;SDS011;38393;52.404;13.532;2023-08-01T06:31:06;4.65;;;2.97;;
52480;SDS011;38393;52.404;13.532;2023-08-01T06:33:31;6.38;;;3.35;;
52480;SDS011;38393;52.404;13.532;2023-08-01T06:35:56;4.55;;;3.25;;
52480;SDS011;38393;52.404;13.532;2023-08-01T06:38:22;4.50;;;3.20;;
52480;SDS011;38393;52.404;13.532;2023-08-01T06:40:47;5.93;;;3.00;;
52480;SDS011;38393;52.404;13.532;2023-08-01T06:43:13;5.22;;;3.58;;
52480;SDS011;38393;52.404;13.532;2023-08-01T06:45:38;5.88;;;3.10;;
52480;SDS011;38393;52.404;13.532;2023-08-01T06:48:04;4.75;;;3.40;;
52480;SDS011;38393;52.404;13.532;2023-08-01T06:50:29;4.68;;;3.20;;
52480;SDS011;38393;52.404;13.532;2023-08-01T06:52:55;5.53;;;3.33;;
52480;SDS011;38393;52.404;13.532;2023-08-01T06:55:20;4.38;;;3.10;;
52480;SDS011;38393;52.404;13.532;2023-08-01T06:57:46;5.32;;;3.00;;
52480;SDS011;38393;52.404;13.532;2023-08-01T07:00:11;4.72;;;3.10;;
52480;SDS011;38393;52.404;13.532;2023-08-01T07:02:37;6.75;;;3.47;;
52480;SDS011;38393;52.404;13.532;2023-08-01T07:05:03;4.78;;;3.50;;
52480;SDS011;38393;52.404;13.532;2023-08-01T07:07:29;5.78;;;3.25;;
52480;SDS011;38393;52.404;13.532;2023-08-01T07:09:55;5.60;;;3.38;;
52480;SDS011;38393;52.404;13.532;2023-08-01T07:12:20;5.70;;;3.15;;
52480;SDS011;38393;52.404;13.532;2023-08-01T07:14:46;4.85;;;3.47;;
52480;SDS011;38393;52.404;13.532;2023-08-01T07:17:11;5.35;;;3.25;;
52480;SDS011;38393;52.404;13.532;2023-08-01T07:19:37;7.50;;;3.40;;
52480;SDS011;38393;52.404;13.532;2023-08-01T07:22:02;3.63;;;3.10;;
52480;SDS011;38393;52.404;13.532;2023-08-01T07:24:28;5.50;;;3.00;;
52480;SDS011;38393;52.404;13.532;2023-08-01T07:26:53;4.00;;;3.00;;
52480;SDS011;38393;52.404;13.532;2023-08-01T07:29:19;5.88;;;2.78;;
52480;SDS011;38393;52.404;13.532;2023-08-01T07:31:44;4.90;;;3.03;;
52480;SDS011;38393;52.404;13.532;2023-08-01T07:34:10;3.42;;;2.92;;
52480;SDS011;38393;52.404;13.532;2023-08-01T07:36:36;3.85;;;2.78;;
52480;SDS011;38393;52.404;13.532;2023-08-01T07:39:02;4.78;;;2.95;;
52480;SDS011;38393;52.404;13.532;2023-08-01T07:41:28;4.15;;;2.67;;
52480;SDS011;38393;52.404;13.532;2023-08-01T07:43:53;4.53;;;2.83;;
52480;SDS011;38393;52.404;13.532;2023-08-01T07:46:19;4.00;;;2.47;;
52480;SDS011;38393;52.404;13.532;2023-08-01T07:48:44;4.22;;;2.67;;
52480;SDS011;38393;52.404;13.532;2023-08-01T07:51:10;5.25;;;2.22;;
52480;SDS011;38393;52.404;13.532;2023-08-01T07:53:36;2.67;;;2.30;;
52480;SDS011;38393;52.404;13.532;2023-08-01T07:56:02;4.38;;;2.70;;
52480;SDS011;38393;52.404;13.532;2023-08-01T07:58:28;4.75;;;2.60;;
52480;SDS011;38393;52.404;13.532;2023-08-01T08:00:54;3.13;;;2.42;;
52480;SDS011;38393;52.404;13.532;2023-08-01T08:03:20;4.30;;;2.30;;
52480;SDS011;38393;52.404;13.532;2023-08-01T08:05:47;4.18;;;2.45;;
52480;SDS011;38393;52.404;13.532;2023-08-01T08:08:13;2.92;;;2.10;;
52480;SDS011;38393;52.404;13.532;2023-08-01T08:10:38;3.03;;;2.25;;
52480;SDS011;38393;52.404;13.532;2023-08-01T08:13:04;3.50;;;2.42;;
52480;SDS011;38393;52.404;13.532;2023-08-01T08:15:29;4.57;;;2.35;;
52480;SDS011;38393;52.404;13.532;2023-08-01T08:17:59;4.07;;;2.50;;
52480;SDS011;38393;52.404;13.532;2023-08-01T08:20:25;4.63;;;2.63;;
52480;SDS011;38393;52.404;13.532;2023-08-01T08:22:50;3.42;;;2.30;;
52480;SDS011;38393;52.404;13.532;2023-08-01T08:25:16;3.22;;;2.38;;
52480;SDS011;38393;52.404;13.532;2023-08-01T08:27:41;4.95;;;2.30;;
52480;SDS011;38393;52.404;13.532;2023-08-01T08:30:07;2.78;;;2.10;;
52480;SDS011;38393;52.404;13.532;2023-08-01T08:32:33;2.92;;;2.10;;
52480;SDS011;38393;52.404;13.532;2023-08-01T08:34:59;4.43;;;2.20;;
52480;SDS011;38393;52.404;13.532;2023-08-01T08:37:25;3.63;;;2.22;;
52480;SDS011;38393;52.404;13.532;2023-08-01T08:39:50;5.57;;;1.98;;
52480;SDS011;38393;52.404;13.532;2023-08-01T08:42:17;3.10;;;1.90;;
52480;SDS011;38393;52.404;13.532;2023-08-01T08:44:44;2.80;;;2.00;;
52480;SDS011;38393;52.404;13.532;2023-08-01T08:47:13;3.65;;;1.70;;
52480;SDS011;38393;52.404;13.532;2023-08-01T08:49:42;1.75;;;1.63;;
52480;SDS011;38393;52.404;13.532;2023-08-01T08:52:08;2.42;;;1.77;;
52480;SDS011;38393;52.404;13.532;2023-08-01T08:54:35;2.40;;;1.70;;
52480;SDS011;38393;52.404;13.532;2023-08-01T08:57:01;2.25;;;1.70;;
52480;SDS011;38393;52.404;13.532;2023-08-01T08:59:29;3.47;;;1.90;;
52480;SDS011;38393;52.404;13.532;2023-08-01T09:01:55;2.85;;;1.60;;
52480;SDS011;38393;52.404;13.532;2023-08-01T09:04:20;2.67;;;1.38;;
52480;SDS011;38393;52.404;13.532;2023-08-01T09:06:48;1.80;;;1.45;;
52480;SDS011;38393;52.404;13.532;2023-08-01T09:09:16;2.15;;;1.48;;
52480;SDS011;38393;52.404;13.532;2023-08-01T09:11:49;2.15;;;1.50;;
52480;SDS011;38393;52.404;13.532;2023-08-01T09:14:15;2.42;;;1.40;;
52480;SDS011;38393;52.404;13.532;2023-08-01T09:16:43;3.05;;;1.40;;
52480;SDS011;38393;52.404;13.532;2023-08-01T09:19:09;4.40;;;1.40;;
52480;SDS011;38393;52.404;13.532;2023-08-01T09:21:38;7.13;;;1.67;;
52480;SDS011;38393;52.404;13.532;2023-08-01T09:24:08;3.35;;;1.30;;
52480;SDS011;38393;52.404;13.532;2023-08-01T09:26:35;2.00;;;1.10;;
52480;SDS011;38393;52.404;13.532;2023-08-01T09:29:02;0.95;;;0.80;;
52480;SDS011;38393;52.404;13.532;2023-08-01T09:31:28;2.45;;;1.00;;
52480;SDS011;38393;52.404;13.532;2023-08-01T09:33:55;1.30;;;0.80;;
52480;SDS011;38393;52.404;13.532;2023-08-01T09:36:21;2.13;;;0.80;;
52480;SDS011;38393;52.404;13.532;2023-08-01T09:38:48;0.80;;;0.60;;
52480;SDS011;38393;52.404;13.532;2023-08-01T09:41:17;1.00;;;0.68;;
52480;SDS011;38393;52.404;13.532;2023-08-01T09:43:44;2.05;;;0.60;;
52480;SDS011;38393;52.404;13.532;2023-08-01T09:46:11;0.90;;;0.60;;
52480;SDS011;38393;52.404;13.532;2023-08-01T09:48:37;1.35;;;0.60;;
52480;SDS011;38393;52.404;13.532;2023-08-01T09:51:13;0.80;;;0.75;;
52480;SDS011;38393;52.404;13.532;2023-08-01T09:53:53;2.90;;;0.90;;
52480;SDS011;38393;52.404;13.532;2023-08-01T09:56:20;0.80;;;0.77;;
52480;SDS011;38393;52.404;13.532;2023-08-01T09:58:50;2.40;;;1.00;;
52480;SDS011;38393;52.404;13.532;2023-08-01T10:01:17;3.47;;;1.02;;
52480;SDS011;38393;52.404;13.532;2023-08-01T10:03:45;4.30;;;0.90;;
52480;SDS011;38393;52.404;13.532;2023-08-01T10:06:18;4.85;;;0.95;;
52480;SDS011;38393;52.404;13.532;2023-08-01T10:08:45;3.72;;;1.02;;
52480;SDS011;38393;52.404;13.532;2023-08-01T10:11:11;1.55;;;0.85;;
52480;SDS011;38393;52.404;13.532;2023-08-01T10:13:39;0.82;;;0.80;;
52480;SDS011;38393;52.404;13.532;2023-08-01T10:16:07;2.28;;;0.80;;
52480;SDS011;38393;52.404;13.532;2023-08-01T10:18:33;1.00;;;0.90;;
52480;SDS011;38393;52.404;13.532;2023-08-01T10:20:59;1.83;;;1.00;;
52480;SDS011;38393;52.404;13.532;2023-08-01T10:23:26;1.63;;;0.80;;
52480;SDS011;38393;52.404;13.532;2023-08-01T10:25:52;3.80;;;0.90;;
52480;SDS011;38393;52.404;13.532;2023-08-01T10:28:18;1.63;;;1.00;;
52480;SDS011;38393;52.404;13.532;2023-08-01T10:30:43;3.55;;;0.95;;
52480;SDS011;38393;52.404;13.532;2023-08-01T10:33:10;1.25;;;0.80;;
52480;SDS011;38393;52.404;13.532;2023-08-01T10:35:38;1.95;;;0.77;;
52480;SDS011;38393;52.404;13.532;2023-08-01T10:38:05;1.15;;;0.70;;
52480;SDS011;38393;52.404;13.532;2023-08-01T10:40:35;1.38;;;0.70;;
52480;SDS011;38393;52.404;13.532;2023-08-01T10:43:19;0.95;;;0.77;;
52480;SDS011;38393;52.404;13.532;2023-08-01T10:45:48;2.25;;;0.70;;
52480;SDS011;38393;52.404;13.532;2023-08-01T10:48:26;0.57;;;0.50;;
52480;SDS011;38393;52.404;13.532;2023-08-01T10:50:55;0.60;;;0.60;;
52480;SDS011;38393;52.404;13.532;2023-08-01T10:53:21;1.17;;;0.70;;
52480;SDS011;38393;52.404;13.532;2023-08-01T10:55:47;0.63;;;0.50;;
52480;SDS011;38393;52.404;13.532;2023-08-01T10:58:13;2.05;;;0.55;;
52480;SDS011;38393;52.404;13.532;2023-08-01T11:00:39;1.52;;;0.77;;
52480;SDS011;38393;52.404;13.532;2023-08-01T11:03:06;1.00;;;0.50;;
52480;SDS011;38393;52.404;13.532;2023-08-01T11:05:31;4.00;;;0.60;;
52480;SDS011;38393;52.404;13.532;2023-08-01T11:07:57;0.60;;;0.45;;
52480;SDS011;38393;52.404;13.532;2023-08-01T11:10:28;0.75;;;0.60;;
52480;SDS011;38393;52.404;13.532;2023-08-01T11:12:55;0.88;;;0.68;;
52480;SDS011;38393;52.404;13.532;2023-08-01T11:15:21;2.67;;;0.82;;
52480;SDS011;38393;52.404;13.532;2023-08-01T11:17:47;3.55;;;1.00;;
52480;SDS011;38393;52.404;13.532;2023-08-01T11:20:14;1.00;;;0.82;;
52480;SDS011;38393;52.404;13.532;2023-08-01T11:22:51;1.38;;;1.02;;
52480;SDS011;38393;52.404;13.532;2023-08-01T11:25:19;1.10;;;1.00;;
52480;SDS011;38393;52.404;13.532;2023-08-01T11:27:55;1.08;;;0.90;;
52480;SDS011;38393;52.404;13.532;2023-08-01T11:30:20;2.03;;;1.08;;
52480;SDS011;38393;52.404;13.532;2023-08-01T11:32:55;2.15;;;1.08;;
52480;SDS011;38393;52.404;13.532;2023-08-01T11:35:20;1.27;;;1.02;;
52480;SDS011;38393;52.404;13.532;2023-08-01T11:37:46;2.08;;;1.00;;
52480;SDS011;38393;52.404;13.532;2023-08-01T11:40:12;1.77;;;1.10;;
52480;SDS011;38393;52.404;13.532;2023-08-01T11:42:37;4.15;;;1.05;;
52480;SDS011;38393;52.404;13.532;2023-08-01T11:45:10;2.35;;;1.05;;
52480;SDS011;38393;52.404;13.532;2023-08-01T11:47:36;1.50;;;1.13;;
52480;SDS011;38393;52.404;13.532;2023-08-01T11:50:02;2.83;;;1.63;;
52480;SDS011;38393;52.404;13.532;2023-08-01T11:52:28;2.95;;;1.70;;
52480;SDS011;38393;52.404;13.532;2023-08-01T11:54:54;3.20;;;1.88;;
52480;SDS011;38393;52.404;13.532;2023-08-01T11:57:21;5.63;;;2.10;;
52480;SDS011;38393;52.404;13.532;2023-08-01T11:59:47;2.88;;;2.05;;
52480;SDS011;38393;52.404;13.532;2023-08-01T12:02:23;3.92;;;2.00;;
52480;SDS011;38393;52.404;13.532;2023-08-01T12:04:50;7.25;;;2.30;;
52480;SDS011;38393;52.404;13.532;2023-08-01T12:07:17;3.85;;;2.33;;
52480;SDS011;38393;52.404;13.532;2023-08-01T12:09:43;4.13;;;2.20;;
52480;SDS011;38393;52.404;13.532;2023-08-01T12:12:09;3.15;;;2.13;;
52480;SDS011;38393;52.404;13.532;2023-08-01T12:14:41;5.40;;;2.35;;
52480;SDS011;38393;52.404;13.532;2023-08-01T12:17:07;5.05;;;2.20;;
52480;SDS011;38393;52.404;13.532;2023-08-01T12:19:32;3.60;;;1.90;;
52480;SDS011;38393;52.404;13.532;2023-08-01T12:21:59;7.53;;;2.45;;
52480;SDS011;38393;52.404;13.532;2023-08-01T12:24:24;4.15;;;2.17;;
52480;SDS011;38393;52.404;13.532;2023-08-01T12:26:50;4.85;;;2.45;;
52480;SDS011;38393;52.404;13.532;2023-08-01T12:29:15;4.28;;;2.17;;
52480;SDS011;38393;52.404;13.532;2023-08-01T12:31:41;3.42;;;2.22;;
52480;SDS011;38393;52.404;13.532;2023-08-01T12:34:06;3.95;;;2.30;;
52480;SDS011;38393;52.404;13.532;2023-08-01T12:36:32;5.40;;;2.78;;
52480;SDS011;38393;52.404;13.532;2023-08-01T12:38:57;4.60;;;2.75;;
52480;SDS011;38393;52.404;13.532;2023-08-01T12:41:23;6.07;;;3.03;;
52480;SDS011;38393;52.404;13.532;2023-08-01T12:43:48;5.03;;;2.67;;
52480;SDS011;38393;52.404;13.532;2023-08-01T12:46:14;4.55;;;2.70;;
52480;SDS011;38393;52.404;13.532;2023-08-01T12:48:40;4.68;;;2.60;;
52480;SDS011;38393;52.404;13.532;2023-08-01T12:51:05;4.00;;;2.50;;
52480;SDS011;38393;52.404;13.532;2023-08-01T12:53:31;4.38;;;2.70;;
52480;SDS011;38393;52.404;13.532;2023-08-01T12:55:56;8.48;;;2.70;;
52480;SDS011;38393;52.404;13.532;2023-08-01T12:58:22;3.88;;;2.40;;
52480;SDS011;38393;52.404;13.532;2023-08-01T13:00:47;6.60;;;2.30;;
52480;SDS011;38393;52.404;13.532;2023-08-01T13:03:13;5.25;;;2.55;;
52480;SDS011;38393;52.404;13.532;2023-08-01T13:05:39;6.15;;;2.50;;
52480;SDS011;38393;52.404;13.532;2023-08-01T13:08:06;3.15;;;2.30;;
52480;SDS011;38393;52.404;13.532;2023-08-01T13:10:34;4.82;;;2.50;;
52480;SDS011;38393;52.404;13.532;2023-08-01T13:13:01;3.42;;;2.30;;
52480;SDS011;38393;52.404;13.532;2023-08-01T13:15:27;4.75;;;2.60;;
52480;SDS011;38393;52.404;13.532;2023-08-01T13:17:54;5.13;;;2.85;;
52480;SDS011;38393;52.404;13.532;2023-08-01T13:20:20;4.65;;;2.70;;
52480;SDS011;38393;52.404;13.532;2023-08-01T13:22:46;3.17;;;2.40;;
52480;SDS011;38393;52.404;13.532;2023-08-01T13:25:13;3.88;;;2.63;;
52480;SDS011;38393;52.404;13.532;2023-08-01T13:27:39;6.97;;;2.70;;
52480;SDS011;38393;52.404;13.532;2023-08-01T13:30:04;5.32;;;2.75;;
52480;SDS011;38393;52.404;13.532;2023-08-01T13:32:30;4.05;;;2.72;;
52480;SDS011;38393;52.404;13.532;2023-08-01T13:34:56;5.28;;;2.60;;
52480;SDS011;38393;52.404;13.532;2023-08-01T13:37:21;6.95;;;2.45;;
52480;SDS011;38393;52.404;13.532;2023-08-01T13:39:47;5.20;;;2.88;;
52480;SDS011;38393;52.404;13.532;2023-08-01T13:42:12;6.10;;;2.55;;
52480;SDS011;38393;52.404;13.532;2023-08-01T13:44:38;3.72;;;2.75;;
52480;SDS011;38393;52.404;13.532;2023-08-01T13:47:05;6.90;;;2.58;;
52480;SDS011;38393;52.404;13.532;2023-08-01T13:49:30;4.80;;;2.72;;
52480;SDS011;38393;52.404;13.532;2023-08-01T13:51:56;5.13;;;2.63;;
52480;SDS011;38393;52.404;13.532;2023-08-01T13:54:21;3.95;;;2.38;;
52480;SDS011;38393;52.404;13.532;2023-08-01T13:56:46;4.35;;;2.70;;
52480;SDS011;38393;52.404;13.532;2023-08-01T13:59:12;5.07;;;2.63;;
52480;SDS011;38393;52.404;13.532;2023-08-01T14:01:37;6.38;;;2.50;;
52480;SDS011;38393;52.404;13.532;2023-08-01T14:04:03;3.67;;;2.42;;
52480;SDS011;38393;52.404;13.532;2023-08-01T14:06:29;5.57;;;2.70;;
52480;SDS011;38393;52.404;13.532;2023-08-01T14:08:54;3.75;;;2.33;;
52480;SDS011;38393;52.404;13.532;2023-08-01T14:11:20;4.22;;;2.63;;
52480;SDS011;38393;52.404;13.532;2023-08-01T14:13:46;5.88;;;2.90;;
52480;SDS011;38393;52.404;13.532;2023-08-01T14:16:11;4.45;;;2.75;;
52480;SDS011;38393;52.404;13.532;2023-08-01T14:18:36;5.32;;;2.70;;
52480;SDS011;38393;52.404;13.532;2023-08-01T14:21:02;5.95;;;2.60;;
52480;SDS011;38393;52.404;13.532;2023-08-01T14:23:27;5.25;;;2.67;;
52480;SDS011;38393;52.404;13.532;2023-08-01T14:25:53;4.15;;;2.40;;
52480;SDS011;38393;52.404;13.532;2023-08-01T14:28:18;5.45;;;2.67;;